createdAt,value
2023-03-27T00:01:44.775Z,12.39
2023-03-27T00:04:26.424Z,11.93
2023-03-27T00:07:09.352Z,11.85
2023-03-27T00:10:02.965Z,12.20
2023-03-27T00:12:50.048Z,10.98
2023-03-27T00:15:29.514Z,11.18
2023-03-27T00:17:59.546Z,11.29
2023-03-27T00:20:33.980Z,12.11
2023-03-27T00:23:05.873Z,12.82
2023-03-27T00:25:36.283Z,13.36
2023-03-27T00:28:21.409Z,12.89
2023-03-27T00:31:24.485Z,12.14
2023-03-27T00:33:56.937Z,11.90
2023-03-27T00:37:11.154Z,11.86
2023-03-27T00:39:50.883Z,11.56
2023-03-27T00:42:24.504Z,11.12
2023-03-27T00:45:33.577Z,10.86
2023-03-27T00:48:12.876Z,10.63
2023-03-27T00:51:10.335Z,10.26
2023-03-27T00:53:58.133Z,10.27
2023-03-27T00:56:59.836Z,9.93
2023-03-27T01:00:26.080Z,9.90
2023-03-27T01:02:53.982Z,9.54
2023-03-27T01:05:28.304Z,9.27
2023-03-27T01:08:12.644Z,9.12
2023-03-27T01:11:12.030Z,9.05
2023-03-27T01:13:42.751Z,8.91
2023-03-27T01:16:42.267Z,9.22
2023-03-27T01:19:59.929Z,9.18
2023-03-27T01:23:00.537Z,8.97
2023-03-27T01:26:35.296Z,8.75
2023-03-27T01:29:22.234Z,8.86
2023-03-27T01:32:27.255Z,8.90
2023-03-27T01:35:57.807Z,8.94
2023-03-27T01:39:18.910Z,8.67
2023-03-27T01:47:22.270Z,8.77
2023-03-27T01:50:36.655Z,8.57
2023-03-27T01:53:31.804Z,8.38
2023-03-27T01:56:36.558Z,8.36
2023-03-27T01:59:19.240Z,8.19
2023-03-27T02:02:33.949Z,8.08
2023-03-27T02:05:41.400Z,7.99
2023-03-27T02:08:22.682Z,7.72
2023-03-27T02:11:12.395Z,7.49
2023-03-27T02:14:08.477Z,7.51
2023-03-27T02:17:00.969Z,7.38
2023-03-27T02:19:40.004Z,7.03
2023-03-27T02:22:09.865Z,7.25
2023-03-27T02:25:41.081Z,6.69
2023-03-27T02:28:54.824Z,6.65
2023-03-27T02:32:11.793Z,6.35
2023-03-27T02:35:22.206Z,5.95
2023-03-27T02:37:59.659Z,5.98
2023-03-27T02:41:10.549Z,5.87
2023-03-27T02:43:59.594Z,5.85
2023-03-27T02:46:58.544Z,5.88
2023-03-27T02:49:53.892Z,5.77
2023-03-27T02:53:16.060Z,5.70
2023-03-27T02:55:52.359Z,5.80
2023-03-27T02:58:35.010Z,5.87
2023-03-27T03:01:54.216Z,5.67
2023-03-27T03:08:20.441Z,5.41
2023-03-27T03:10:50.369Z,5.46
2023-03-27T03:13:55.420Z,5.54
2023-03-27T03:16:56.403Z,5.44
2023-03-27T03:19:33.998Z,5.43
2023-03-27T03:22:17.737Z,5.41
2023-03-27T03:25:07.416Z,5.47
2023-03-27T03:27:58.859Z,5.30
2023-03-27T03:30:32.850Z,5.42
2023-03-27T03:33:13.389Z,5.23
2023-03-27T03:35:49.336Z,5.31
2023-03-27T03:38:37.862Z,5.15
2023-03-27T03:41:15.042Z,5.25
2023-03-27T03:43:47.320Z,5.30
2023-03-27T03:46:54.375Z,5.38
2023-03-27T03:49:46.857Z,5.36
2023-03-27T03:52:34.970Z,5.38
2023-03-27T03:55:07.840Z,5.36
2023-03-27T03:57:48.137Z,5.32
2023-03-27T04:00:33.493Z,5.00
2023-03-27T04:03:11.989Z,5.03
2023-03-27T04:05:44.972Z,4.84
2023-03-27T04:08:14.232Z,4.82
2023-03-27T04:10:49.875Z,4.82
2023-03-27T04:13:38.451Z,4.80
2023-03-27T04:16:21.689Z,4.36
2023-03-27T04:19:04.629Z,4.25
2023-03-27T04:21:37.292Z,4.32
2023-03-27T04:24:09.377Z,4.48
2023-03-27T04:27:07.022Z,4.58
2023-03-27T04:30:00.775Z,4.55
2023-03-27T04:32:50.165Z,4.35
2023-03-27T04:36:06.959Z,4.43
2023-03-27T04:38:55.864Z,4.40
2023-03-27T04:41:25.269Z,4.26
2023-03-27T04:43:58.612Z,4.09
2023-03-27T04:46:41.206Z,4.16
2023-03-27T04:49:13.725Z,4.43
2023-03-27T04:52:03.735Z,4.15
2023-03-27T04:54:34.260Z,4.36
2023-03-27T04:57:07.677Z,4.47
2023-03-27T04:59:39.949Z,4.47
2023-03-27T05:02:45.595Z,4.30
2023-03-27T05:05:20.438Z,4.28
2023-03-27T05:08:04.373Z,4.32
2023-03-27T05:10:34.079Z,4.14
2023-03-27T05:13:06.399Z,4.06
2023-03-27T05:15:37.087Z,4.16
2023-03-27T05:18:08.467Z,4.02
2023-03-27T05:20:40.557Z,3.87
2023-03-27T05:23:13.593Z,3.88
2023-03-27T05:26:00.094Z,3.91
2023-03-27T05:28:46.326Z,3.99
2023-03-27T05:31:16.463Z,4.01
2023-03-27T05:34:15.166Z,3.88
2023-03-27T05:36:48.048Z,3.83
2023-03-27T05:39:17.814Z,3.96
2023-03-27T05:41:49.232Z,3.88
2023-03-27T05:44:30.044Z,3.88
2023-03-27T05:47:02.060Z,3.92
2023-03-27T05:49:34.152Z,3.85
2023-03-27T05:52:13.190Z,3.53
2023-03-27T05:54:44.545Z,3.33
2023-03-27T05:57:14.049Z,3.32
2023-03-27T05:59:43.748Z,3.69
2023-03-27T06:02:26.997Z,3.60
2023-03-27T06:05:01.338Z,3.78
2023-03-27T06:07:34.098Z,3.80
2023-03-27T06:10:13.698Z,3.82
2023-03-27T06:13:06.012Z,3.81
2023-03-27T06:15:44.162Z,3.77
2023-03-27T06:18:31.878Z,3.77
2023-03-27T06:21:05.694Z,3.72
2023-03-27T06:23:35.084Z,3.71
2023-03-27T06:26:11.755Z,3.63
2023-03-27T06:28:41.061Z,3.59
2023-03-27T06:31:13.043Z,3.40
2023-03-27T06:33:50.064Z,3.27
2023-03-27T06:36:39.637Z,3.42
2023-03-27T06:39:15.352Z,3.40
2023-03-27T06:41:50.778Z,3.39
2023-03-27T06:44:30.080Z,3.34
2023-03-27T06:47:23.179Z,3.22
2023-03-27T06:50:24.032Z,3.29
2023-03-27T06:52:56.150Z,3.26
2023-03-27T06:55:40.776Z,3.18
2023-03-27T06:58:14.463Z,3.14
2023-03-27T07:00:45.029Z,3.14
2023-03-27T07:03:34.166Z,3.09
2023-03-27T07:06:23.498Z,3.07
2023-03-27T07:09:01.202Z,3.04
2023-03-27T07:11:32.203Z,2.96
2023-03-27T07:14:12.312Z,2.93
2023-03-27T07:16:44.453Z,2.91
2023-03-27T07:19:14.934Z,2.86
2023-03-27T07:21:47.800Z,2.78
2023-03-27T07:24:17.426Z,2.73
2023-03-27T07:26:46.666Z,2.70
2023-03-27T07:29:22.794Z,2.69
2023-03-27T07:31:58.748Z,2.65
2023-03-27T07:34:40.576Z,2.64
2023-03-27T07:37:39.803Z,2.61
2023-03-27T07:40:43.421Z,2.66
2023-03-27T07:43:47.940Z,2.64
2023-03-27T07:46:17.902Z,2.59
2023-03-27T07:48:47.020Z,2.57
2023-03-27T07:51:19.410Z,2.52
2023-03-27T07:53:50.384Z,2.53
2023-03-27T07:56:26.884Z,2.50
2023-03-27T07:59:28.944Z,2.53
2023-03-27T08:02:03.884Z,2.54
2023-03-27T08:04:34.051Z,2.53
2023-03-27T08:07:10.060Z,2.47
2023-03-27T08:09:39.926Z,2.56
2023-03-27T08:12:10.912Z,2.55
2023-03-27T08:14:48.760Z,2.54
2023-03-27T08:17:35.099Z,2.49
2023-03-27T08:20:10.070Z,2.45
2023-03-27T08:22:48.108Z,2.53
2023-03-27T08:25:37.338Z,2.57
2023-03-27T08:28:10.217Z,2.54
2023-03-27T08:30:42.951Z,2.53
2023-03-27T08:33:12.442Z,2.54
2023-03-27T08:35:42.292Z,2.50
2023-03-27T08:38:23.771Z,2.59
2023-03-27T08:41:20.771Z,2.54
2023-03-27T08:44:05.523Z,2.41
2023-03-27T08:46:40.099Z,2.54
2023-03-27T08:49:18.228Z,2.65
2023-03-27T08:52:11.025Z,2.61
2023-03-27T08:54:45.633Z,2.57
2023-03-27T08:57:22.526Z,2.67
2023-03-27T09:00:00.325Z,2.63
2023-03-27T09:02:49.609Z,2.63
2023-03-27T09:05:25.303Z,2.60
2023-03-27T09:08:24.876Z,2.72
2023-03-27T09:11:11.801Z,2.82
2023-03-27T09:13:53.245Z,2.77
2023-03-27T09:16:36.766Z,2.78
2023-03-27T09:19:10.323Z,2.83
2023-03-27T09:22:15.109Z,2.96
2023-03-27T09:25:16.552Z,2.91
2023-03-27T09:28:05.576Z,2.88
2023-03-27T09:30:46.770Z,2.88
2023-03-27T09:33:28.857Z,2.92
2023-03-27T09:36:00.639Z,2.91
2023-03-27T09:38:51.996Z,2.69
2023-03-27T09:41:34.867Z,2.80
2023-03-27T09:44:24.171Z,2.77
2023-03-27T09:47:10.373Z,2.93
2023-03-27T09:49:46.335Z,2.88
2023-03-27T09:52:39.018Z,2.66
2023-03-27T09:55:32.523Z,2.82
2023-03-27T09:58:17.499Z,2.77
2023-03-27T10:00:48.232Z,2.67
2023-03-27T10:03:20.171Z,2.63
2023-03-27T10:06:08.727Z,2.62
2023-03-27T10:08:53.893Z,2.77
2023-03-27T10:11:33.723Z,2.86
2023-03-27T10:14:17.788Z,2.65
2023-03-27T10:16:48.577Z,2.95
2023-03-27T10:19:36.573Z,2.75
2023-03-27T10:22:28.636Z,2.94
2023-03-27T10:25:05.185Z,2.71
2023-03-27T10:27:54.544Z,2.51
2023-03-27T10:30:43.233Z,2.66
2023-03-27T10:33:37.410Z,2.77
2023-03-27T10:36:25.225Z,2.57
2023-03-27T10:39:10.587Z,2.41
2023-03-27T10:41:52.338Z,2.56
2023-03-27T10:44:29.386Z,2.29
2023-03-27T10:47:00.080Z,2.39
2023-03-27T10:49:49.926Z,2.11
2023-03-27T10:52:47.107Z,2.45
2023-03-27T10:55:29.714Z,2.36
2023-03-27T10:58:07.374Z,2.14
2023-03-27T11:00:44.229Z,2.44
2023-03-27T11:03:27.139Z,2.38
2023-03-27T11:06:06.425Z,2.38
2023-03-27T11:09:06.452Z,2.24
2023-03-27T11:12:05.189Z,2.17
2023-03-27T11:14:40.571Z,2.08
2023-03-27T11:17:19.440Z,1.92
2023-03-27T11:20:17.048Z,1.95
2023-03-27T11:23:06.403Z,1.95
2023-03-27T11:26:03.565Z,1.98
2023-03-27T11:28:47.932Z,1.70
2023-03-27T11:31:49.182Z,1.76
2023-03-27T11:34:41.801Z,1.88
2023-03-27T11:37:42.448Z,1.70
2023-03-27T11:40:25.629Z,1.43
2023-03-27T11:43:02.269Z,1.24
2023-03-27T11:45:47.398Z,1.51
2023-03-27T11:49:04.322Z,1.65
2023-03-27T11:51:39.555Z,1.77
2023-03-27T11:54:18.793Z,1.67
2023-03-27T11:56:55.381Z,1.54
2023-03-27T12:00:02.877Z,1.26
2023-03-27T12:02:44.248Z,1.19
2023-03-27T12:05:53.316Z,1.31
2023-03-27T12:08:32.029Z,1.33
2023-03-27T12:11:04.647Z,1.26
2023-03-27T12:13:42.286Z,1.20
2023-03-27T12:16:49.397Z,0.99
2023-03-27T12:19:31.087Z,0.85
2023-03-27T12:22:32.355Z,0.89
2023-03-27T12:25:24.237Z,0.94
2023-03-27T12:28:33.880Z,1.19
2023-03-27T12:31:38.045Z,1.03
2023-03-27T12:34:19.281Z,1.24
2023-03-27T12:36:49.356Z,1.34
2023-03-27T12:39:27.359Z,1.36
2023-03-27T12:42:03.671Z,1.25
2023-03-27T12:45:07.483Z,1.04
2023-03-27T12:47:36.598Z,1.23
2023-03-27T12:50:27.256Z,1.34
2023-03-27T12:52:58.524Z,1.31
2023-03-27T12:55:37.945Z,1.26
2023-03-27T12:58:41.214Z,1.15
2023-03-27T13:01:52.206Z,1.22
2023-03-27T13:04:50.090Z,1.23
2023-03-27T13:07:54.634Z,1.13
2023-03-27T13:10:45.211Z,0.81
2023-03-27T13:13:46.055Z,0.72
2023-03-27T13:16:25.639Z,0.61
2023-03-27T13:19:14.686Z,0.55
2023-03-27T13:22:19.778Z,0.57
2023-03-27T13:25:16.065Z,0.69
2023-03-27T13:28:07.344Z,0.65
2023-03-27T13:30:57.207Z,0.94
2023-03-27T13:33:48.441Z,0.86
2023-03-27T13:36:32.371Z,0.84
2023-03-27T13:39:06.689Z,0.59
2023-03-27T13:41:45.420Z,0.44
2023-03-27T13:44:40.951Z,0.65
2023-03-27T13:47:10.403Z,0.51
2023-03-27T13:49:50.632Z,0.51
2023-03-27T13:52:35.586Z,0.60
2023-03-27T13:55:18.410Z,0.38
2023-03-27T13:58:33.528Z,0.22
2023-03-27T14:01:19.580Z,0.22
2023-03-27T14:04:14.424Z,0.15
2023-03-27T14:07:08.623Z,0.30
2023-03-27T14:10:10.948Z,0.50
2023-03-27T14:13:04.191Z,0.32
2023-03-27T14:16:20.363Z,0.28
2023-03-27T14:19:15.257Z,0.25
2023-03-27T14:22:00.004Z,0.44
2023-03-27T14:24:47.697Z,0.36
2023-03-27T14:27:55.009Z,0.35
2023-03-27T14:30:30.305Z,0.42
2023-03-27T14:33:25.876Z,0.57
2023-03-27T14:36:04.686Z,0.55
2023-03-27T14:38:38.174Z,0.58
2023-03-27T14:41:21.402Z,0.66
2023-03-27T14:44:04.877Z,0.48
2023-03-27T14:46:45.892Z,0.37
2023-03-27T14:49:24.799Z,-0.01
2023-03-27T14:52:05.144Z,-0.29
2023-03-27T14:54:58.451Z,-0.21
2023-03-27T14:57:35.353Z,0.04
2023-03-27T15:00:08.734Z,0.35
2023-03-27T15:02:47.463Z,0.62
2023-03-27T15:05:25.981Z,0.75
2023-03-27T15:08:02.621Z,0.62
2023-03-27T15:10:58.249Z,0.59
2023-03-27T15:13:42.960Z,0.47
2023-03-27T15:16:30.859Z,0.64
2023-03-27T15:19:15.053Z,0.60
2023-03-27T15:21:59.799Z,0.54
2023-03-27T15:25:08.375Z,0.93
2023-03-27T15:27:53.590Z,0.47
2023-03-27T15:30:34.964Z,0.43
2023-03-27T15:33:06.655Z,0.54
2023-03-27T15:35:45.937Z,0.57
2023-03-27T15:38:17.955Z,0.67
2023-03-27T15:40:47.446Z,0.56
2023-03-27T15:43:17.167Z,0.59
2023-03-27T15:46:00.057Z,0.77
2023-03-27T15:48:38.026Z,0.97
2023-03-27T15:51:11.354Z,0.97
2023-03-27T15:53:48.705Z,1.05
2023-03-27T15:56:22.677Z,1.05
2023-03-27T15:59:08.217Z,1.09
2023-03-27T16:01:52.867Z,1.05
2023-03-27T16:04:27.338Z,1.03
2023-03-27T16:07:10.370Z,1.08
2023-03-27T16:10:06.031Z,1.30
2023-03-27T16:12:50.910Z,1.39
2023-03-27T16:15:31.873Z,1.48
2023-03-27T16:18:05.527Z,1.52
2023-03-27T16:20:39.919Z,1.61
2023-03-27T16:23:09.528Z,1.71
2023-03-27T16:25:39.921Z,1.71
2023-03-27T16:28:10.888Z,1.79
2023-03-27T16:30:42.428Z,1.83
2023-03-27T16:33:17.809Z,1.97
2023-03-27T16:35:47.235Z,2.13
2023-03-27T16:38:17.502Z,2.02
2023-03-27T16:40:47.278Z,2.14
2023-03-27T16:43:16.382Z,2.14
2023-03-27T16:45:46.904Z,2.07
2023-03-27T16:48:21.029Z,2.35
2023-03-27T16:50:50.134Z,2.50
2023-03-27T16:53:19.079Z,2.54
2023-03-27T16:55:48.078Z,2.60
2023-03-27T16:58:17.752Z,2.43
2023-03-27T17:00:46.757Z,2.82
2023-03-27T17:03:18.884Z,2.99
2023-03-27T17:05:48.298Z,3.08
2023-03-27T17:08:19.498Z,3.15
2023-03-27T17:10:48.639Z,3.27
2023-03-27T17:13:18.165Z,3.40
2023-03-27T17:15:52.151Z,3.55
2023-03-27T17:18:21.609Z,3.70
2023-03-27T17:20:50.518Z,3.85
2023-03-27T17:23:20.358Z,4.01
2023-03-27T17:25:52.585Z,4.10
2023-03-27T17:28:21.861Z,4.23
2023-03-27T17:31:03.168Z,4.26
2023-03-27T17:33:34.072Z,4.47
2023-03-27T17:36:09.447Z,4.51
2023-03-27T17:38:38.979Z,4.86
2023-03-27T17:41:13.615Z,4.96
2023-03-27T17:43:42.974Z,5.08
2023-03-27T17:46:14.724Z,5.30
2023-03-27T17:48:43.922Z,5.49
2023-03-27T17:51:13.260Z,5.62
2023-03-27T17:53:44.918Z,5.82
2023-03-27T17:56:13.968Z,5.96
2023-03-27T17:58:44.741Z,6.02
2023-03-27T18:01:18.653Z,6.21
2023-03-27T18:03:48.649Z,6.30
2023-03-27T18:06:18.992Z,6.22
2023-03-27T18:08:48.674Z,6.48
2023-03-27T18:11:20.014Z,6.66
2023-03-27T18:13:53.693Z,6.88
2023-03-27T18:16:23.800Z,6.99
2023-03-27T18:18:55.772Z,7.11
2023-03-27T18:21:25.282Z,7.37
2023-03-27T18:23:56.866Z,7.33
2023-03-27T18:26:46.110Z,7.59
2023-03-27T18:29:21.954Z,7.30
2023-03-27T18:31:51.600Z,7.37
2023-03-27T18:34:20.753Z,7.59
2023-03-27T18:36:52.623Z,7.98
2023-03-27T18:39:21.928Z,7.78
2023-03-27T18:41:52.282Z,7.82
2023-03-27T18:44:23.954Z,8.29
2023-03-27T18:46:53.304Z,8.18
2023-03-27T18:49:25.173Z,8.65
2023-03-27T18:51:54.850Z,8.67
2023-03-27T18:54:24.110Z,8.73
2023-03-27T18:57:01.521Z,8.86
2023-03-27T18:59:30.534Z,9.03
2023-03-27T19:01:59.497Z,9.55
2023-03-27T19:04:31.684Z,10.01
2023-03-27T19:07:01.099Z,9.65
2023-03-27T19:09:40.918Z,9.99
2023-03-27T19:12:11.934Z,10.12
2023-03-27T19:15:06.598Z,10.69
2023-03-27T19:18:02.079Z,10.81
2023-03-27T19:20:54.073Z,10.57
2023-03-27T19:23:33.411Z,10.89
2023-03-27T19:26:11.897Z,11.20
2023-03-27T19:28:48.297Z,11.17
2023-03-27T19:31:20.020Z,11.57
2023-03-27T19:33:49.204Z,11.42
2023-03-27T19:36:25.817Z,11.35
2023-03-27T19:38:55.912Z,11.04
2023-03-27T19:41:27.877Z,10.58
2023-03-27T19:44:00.533Z,11.31
2023-03-27T19:46:30.122Z,11.75
2023-03-27T19:49:04.683Z,11.88
2023-03-27T19:51:54.064Z,11.14
2023-03-27T19:54:23.420Z,11.54
2023-03-27T19:56:55.932Z,12.13
2023-03-27T19:59:30.905Z,11.91
2023-03-27T20:02:01.236Z,12.50
2023-03-27T20:04:30.242Z,12.42
2023-03-27T20:07:04.284Z,12.44
2023-03-27T20:09:33.818Z,13.00
2023-03-27T20:12:02.999Z,12.08
2023-03-27T20:14:32.118Z,12.07
2023-03-27T20:17:01.071Z,12.66
2023-03-27T20:19:31.467Z,13.25
2023-03-27T20:22:08.483Z,13.14
2023-03-27T20:24:37.790Z,13.12
2023-03-27T20:27:09.905Z,13.82
2023-03-27T20:29:41.816Z,14.06
2023-03-27T20:32:17.804Z,15.08
2023-03-27T20:34:49.567Z,14.28
2023-03-27T20:37:41.339Z,13.94
2023-03-27T20:40:16.966Z,14.03
2023-03-27T20:42:49.271Z,15.28
2023-03-27T20:45:23.161Z,14.89
2023-03-27T20:47:55.322Z,14.62
2023-03-27T20:50:24.838Z,13.05
2023-03-27T20:53:11.950Z,14.28
2023-03-27T20:55:49.691Z,14.52
2023-03-27T20:58:25.524Z,14.26
2023-03-27T21:00:59.328Z,14.94
2023-03-27T21:03:32.903Z,14.14
2023-03-27T21:06:09.770Z,13.58
2023-03-27T21:08:40.015Z,14.54
2023-03-27T21:11:13.038Z,14.61
2023-03-27T21:13:42.574Z,14.53
2023-03-27T21:16:11.794Z,14.96
2023-03-27T21:18:44.213Z,15.65
2023-03-27T21:21:13.458Z,15.25
2023-03-27T21:23:43.478Z,15.99
2023-03-27T21:26:22.657Z,15.22
2023-03-27T21:29:22.062Z,15.35
2023-03-27T21:32:07.332Z,15.11
2023-03-27T21:34:45.867Z,16.25
2023-03-27T21:37:43.385Z,15.04
2023-03-27T21:40:38.727Z,15.39
2023-03-27T21:44:02.144Z,15.68
2023-03-27T21:46:54.143Z,15.55
2023-03-27T21:49:29.611Z,15.55
2023-03-27T21:52:13.228Z,14.24
2023-03-27T21:55:02.974Z,15.11
2023-03-27T21:57:50.702Z,15.36
2023-03-27T22:00:22.644Z,15.95
2023-03-27T22:02:52.034Z,16.47
2023-03-27T22:05:22.725Z,15.94
2023-03-27T22:07:52.271Z,16.64
2023-03-27T22:10:24.335Z,16.51
2023-03-27T22:12:56.355Z,16.49
2023-03-27T22:15:34.652Z,15.70
2023-03-27T22:18:44.415Z,15.62
2023-03-27T22:21:22.370Z,16.98
2023-03-27T22:24:08.474Z,15.93
2023-03-27T22:26:40.830Z,15.83
2023-03-27T22:29:10.137Z,14.87
2023-03-27T22:31:42.710Z,15.70
2023-03-27T22:34:12.717Z,15.00
2023-03-27T22:36:44.020Z,15.77
2023-03-27T22:39:15.188Z,15.84
2023-03-27T22:41:47.072Z,17.33
2023-03-27T22:47:46.499Z,15.94
2023-03-27T22:51:00.392Z,15.02
2023-03-27T22:53:36.292Z,16.19
2023-03-27T22:56:29.905Z,16.28
2023-03-27T22:59:01.721Z,15.23
2023-03-27T23:01:31.354Z,15.38
2023-03-27T23:04:10.447Z,16.05
2023-03-27T23:09:23.376Z,15.44
2023-03-27T23:12:19.905Z,16.31
2023-03-27T23:14:53.233Z,16.54
2023-03-27T23:17:23.626Z,16.80
2023-03-27T23:20:02.606Z,16.84
2023-03-27T23:22:54.476Z,15.84
2023-03-27T23:25:24.027Z,15.96
2023-03-27T23:28:20.435Z,15.26
2023-03-27T23:31:35.558Z,16.60
2023-03-27T23:34:34.638Z,16.62
2023-03-27T23:37:07.107Z,16.47
2023-03-27T23:39:41.990Z,15.28
2023-03-27T23:42:21.591Z,15.35
2023-03-27T23:44:50.628Z,16.09
2023-03-27T23:47:19.765Z,16.21
2023-03-27T23:49:51.898Z,16.76
2023-03-27T23:52:29.389Z,16.39
2023-03-27T23:54:58.677Z,16.61
2023-03-27T23:57:27.735Z,16.18
